createdAt,value
2024-04-22T00:01:26.625Z,83.11
2024-04-22T00:03:57.527Z,84.61
2024-04-22T00:06:25.906Z,82.58
2024-04-22T00:08:56.486Z,82.28
2024-04-22T00:11:27.595Z,82.50
2024-04-22T00:13:58.497Z,84.01
2024-04-22T00:16:26.693Z,83.82
2024-04-22T00:18:57.499Z,83.25
2024-04-22T00:21:28.265Z,84.33
2024-04-22T00:23:56.477Z,84.35
2024-04-22T00:26:30.265Z,85.06
2024-04-22T00:28:58.500Z,84.50
2024-04-22T00:31:29.337Z,84.98
2024-04-22T00:33:57.517Z,84.47
2024-04-22T00:36:28.271Z,84.89
2024-04-22T00:38:56.512Z,84.66
2024-04-22T00:41:32.521Z,84.46
2024-04-22T00:44:00.496Z,84.40
2024-04-22T00:46:31.313Z,84.28
2024-04-22T00:48:59.519Z,85.60
2024-04-22T00:51:30.329Z,86.12
2024-04-22T00:53:59.522Z,86.78
2024-04-22T00:56:33.299Z,87.12
2024-04-22T00:59:01.554Z,86.54
2024-04-22T01:01:32.347Z,86.42
2024-04-22T01:04:00.291Z,85.95
2024-04-22T01:06:31.539Z,86.81
2024-04-22T01:08:59.007Z,87.39
2024-04-22T01:11:29.638Z,86.91
2024-04-22T01:14:03.801Z,88.28
2024-04-22T01:16:34.609Z,88.07
2024-04-22T01:19:01.996Z,88.87
2024-04-22T01:21:35.555Z,87.96
2024-04-22T01:24:03.172Z,88.59
2024-04-22T01:26:33.565Z,88.12
2024-04-22T01:29:01.051Z,88.92
2024-04-22T01:31:31.622Z,88.45
2024-04-22T01:33:59.486Z,88.36
2024-04-22T01:36:30.557Z,89.23
2024-04-22T01:39:02.563Z,88.16
2024-04-22T01:41:33.575Z,88.26
2024-04-22T01:44:01.083Z,89.71
2024-04-22T01:46:31.761Z,88.80
2024-04-22T01:48:59.255Z,88.80
2024-04-22T01:51:29.591Z,90.35
2024-04-22T01:53:57.047Z,90.08
2024-04-22T01:56:30.836Z,90.14
2024-04-22T01:58:59.127Z,89.85
2024-04-22T02:01:29.635Z,89.84
2024-04-22T02:03:57.398Z,89.75
2024-04-22T02:06:28.386Z,89.38
2024-04-22T02:08:55.601Z,89.88
2024-04-22T02:11:29.808Z,89.68
2024-04-22T02:13:57.644Z,89.75
2024-04-22T02:16:27.435Z,89.80
2024-04-22T02:18:56.615Z,89.19
2024-04-22T02:21:30.183Z,89.56
2024-04-22T02:23:58.630Z,89.28
2024-04-22T02:26:31.403Z,89.37
2024-04-22T02:29:00.631Z,88.31
2024-04-22T02:31:31.050Z,88.98
2024-04-22T02:33:59.627Z,88.42
2024-04-22T02:36:29.436Z,89.27
2024-04-22T02:38:58.650Z,88.25
2024-04-22T02:41:31.408Z,88.50
2024-04-22T02:44:00.729Z,90.24
2024-04-22T02:46:30.537Z,88.41
2024-04-22T02:48:59.667Z,89.42
2024-04-22T02:51:29.453Z,89.64
2024-04-22T02:53:58.643Z,89.52
2024-04-22T02:56:31.463Z,89.34
2024-04-22T02:59:00.669Z,88.50
2024-04-22T03:01:33.986Z,89.18
2024-04-22T03:04:03.724Z,89.16
2024-04-22T03:06:33.677Z,89.78
2024-04-22T03:09:02.684Z,90.13
2024-04-22T03:11:36.549Z,90.53
2024-04-22T03:14:05.736Z,90.19
2024-04-22T03:16:35.528Z,91.05
2024-04-22T03:19:04.680Z,90.99
2024-04-22T03:21:34.502Z,91.83
2024-04-22T03:24:04.726Z,91.50
2024-04-22T03:26:37.482Z,91.57
2024-04-22T03:29:06.732Z,91.65
2024-04-22T03:31:36.535Z,91.78
2024-04-22T03:34:05.722Z,91.66
2024-04-22T03:36:35.485Z,91.09
2024-04-22T03:39:07.719Z,91.17
2024-04-22T03:41:40.496Z,91.08
2024-04-22T03:44:12.716Z,91.26
2024-04-22T03:46:58.396Z,91.67
2024-04-22T03:49:41.769Z,91.19
2024-04-22T03:52:11.555Z,91.26
2024-04-22T03:54:43.755Z,91.76
2024-04-22T03:57:16.522Z,91.85
2024-04-22T03:59:48.722Z,91.92
2024-04-22T04:02:15.887Z,92.30
2024-04-22T04:04:47.814Z,92.21
2024-04-22T04:07:14.918Z,93.16
2024-04-22T04:09:46.769Z,92.29
2024-04-22T04:12:16.901Z,92.82
2024-04-22T04:14:47.879Z,92.65
2024-04-22T04:17:15.830Z,92.92
2024-04-22T04:19:46.898Z,93.10
2024-04-22T04:22:14.832Z,92.55
2024-04-22T04:24:45.920Z,93.36
2024-04-22T04:27:17.789Z,92.88
2024-04-22T04:29:48.875Z,92.01
2024-04-22T04:32:16.795Z,92.09
2024-04-22T04:34:47.932Z,91.56
2024-04-22T04:37:14.934Z,91.26
2024-04-22T04:39:46.793Z,90.72
2024-04-22T04:42:16.911Z,91.10
2024-04-22T04:44:48.783Z,90.93
2024-04-22T04:47:16.015Z,90.88
2024-04-22T04:49:46.991Z,90.43
2024-04-22T04:52:14.883Z,90.32
2024-04-22T04:54:47.786Z,90.38
2024-04-22T04:57:18.379Z,90.00
2024-04-22T04:59:48.818Z,90.09
2024-04-22T05:02:16.366Z,89.35
2024-04-22T05:04:46.835Z,88.44
2024-04-22T05:07:15.638Z,88.85
2024-04-22T05:09:47.049Z,88.64
2024-04-22T05:12:14.829Z,87.79
2024-04-22T05:14:48.596Z,89.21
2024-04-22T05:17:16.925Z,88.59
2024-04-22T05:19:48.026Z,86.57
2024-04-22T05:22:16.856Z,87.12
2024-04-22T05:24:47.970Z,84.42
2024-04-22T05:27:15.853Z,85.35
2024-04-22T05:29:51.805Z,84.76
2024-04-22T05:32:19.899Z,84.13
2024-04-22T05:35:06.878Z,85.62
2024-04-22T05:37:36.940Z,84.50
2024-04-22T05:40:08.960Z,84.43
2024-04-22T05:42:39.872Z,83.26
2024-04-22T05:45:13.725Z,83.93
2024-04-22T05:47:43.939Z,81.37
2024-04-22T05:50:15.054Z,82.52
2024-04-22T05:52:44.705Z,81.83
2024-04-22T05:55:13.395Z,80.33
2024-04-22T05:57:45.944Z,81.97
2024-04-22T06:00:18.028Z,80.37
2024-04-22T06:02:48.971Z,79.74
2024-04-22T06:05:20.311Z,77.94
2024-04-22T06:07:50.934Z,76.68
2024-04-22T06:10:19.145Z,76.80
2024-04-22T06:12:50.036Z,76.62
2024-04-22T06:15:21.013Z,77.64
2024-04-22T06:17:51.953Z,78.54
2024-04-22T06:20:20.058Z,74.58
2024-04-22T06:22:50.997Z,74.58
2024-04-22T06:25:19.500Z,75.75
2024-04-22T06:27:51.934Z,75.14
2024-04-22T06:30:23.074Z,72.95
2024-04-22T06:32:54.028Z,76.14
2024-04-22T06:35:23.405Z,75.22
2024-04-22T06:37:53.975Z,73.83
2024-04-22T06:40:22.740Z,74.73
2024-04-22T06:42:53.713Z,74.40
2024-04-22T06:45:24.938Z,72.11
2024-04-22T06:47:55.122Z,73.20
2024-04-22T06:50:23.946Z,72.73
2024-04-22T06:52:54.623Z,71.00
2024-04-22T06:55:25.889Z,72.78
2024-04-22T06:57:56.098Z,73.91
2024-04-22T07:00:27.990Z,72.59
2024-04-22T07:02:58.382Z,72.53
2024-04-22T07:05:27.020Z,71.52
2024-04-22T07:07:57.506Z,72.47
2024-04-22T07:10:25.978Z,72.04
2024-04-22T07:12:56.097Z,71.76
2024-04-22T07:15:28.006Z,72.39
2024-04-22T07:17:58.201Z,70.64
2024-04-22T07:20:27.006Z,68.02
2024-04-22T07:22:57.099Z,69.00
2024-04-22T07:25:27.004Z,69.76
2024-04-22T07:28:00.243Z,70.83
2024-04-22T07:30:31.994Z,64.11
2024-04-22T07:33:02.819Z,64.18
2024-04-22T07:35:33.006Z,64.28
2024-04-22T07:38:06.041Z,65.75
2024-04-22T07:40:36.092Z,64.66
2024-04-22T07:43:06.329Z,63.94
2024-04-22T07:45:37.389Z,64.14
2024-04-22T07:48:09.139Z,65.04
2024-04-22T07:50:37.488Z,67.20
2024-04-22T07:53:09.298Z,65.47
2024-04-22T07:55:38.698Z,64.56
2024-04-22T07:58:09.057Z,59.76
2024-04-22T08:00:40.290Z,60.17
2024-04-22T08:03:11.160Z,63.75
2024-04-22T08:05:40.149Z,59.44
2024-04-22T08:08:12.075Z,60.81
2024-04-22T08:10:40.613Z,66.11
2024-04-22T08:13:11.047Z,65.31
2024-04-22T08:15:43.845Z,62.96
2024-04-22T08:18:15.980Z,62.53
2024-04-22T08:20:45.091Z,64.30
2024-04-22T08:23:14.848Z,60.94
2024-04-22T08:25:43.921Z,61.01
2024-04-22T08:28:14.105Z,62.20
2024-04-22T08:30:45.297Z,62.28
2024-04-22T08:33:16.153Z,62.96
2024-04-22T08:35:48.338Z,61.50
2024-04-22T08:38:19.125Z,60.06
2024-04-22T08:40:47.590Z,58.51
2024-04-22T08:43:18.132Z,58.05
2024-04-22T08:45:49.297Z,57.78
2024-04-22T08:48:20.116Z,56.71
2024-04-22T08:50:51.524Z,55.95
2024-04-22T08:53:21.397Z,56.25
2024-04-22T08:55:50.196Z,54.36
2024-04-22T08:58:20.342Z,53.12
2024-04-22T09:00:52.155Z,57.31
2024-04-22T09:03:22.363Z,58.71
2024-04-22T09:05:51.173Z,60.43
2024-04-22T09:08:21.811Z,55.40
2024-04-22T09:11:27.296Z,59.22
2024-04-22T09:13:48.605Z,59.06
2024-04-22T09:16:20.229Z,61.53
2024-04-22T09:18:50.413Z,60.56
2024-04-22T09:21:18.319Z,59.17
2024-04-22T09:23:48.258Z,62.06
2024-04-22T09:26:16.825Z,60.12
2024-04-22T09:28:49.995Z,61.88
2024-04-22T09:31:23.190Z,64.85
2024-04-22T09:33:54.794Z,60.65
2024-04-22T09:36:25.168Z,59.89
2024-04-22T09:38:58.286Z,59.95
2024-04-22T09:41:30.256Z,59.21
2024-04-22T09:44:06.621Z,61.46
2024-04-22T09:46:45.297Z,58.73
2024-04-22T09:49:18.587Z,61.24
2024-04-22T09:51:47.867Z,61.11
2024-04-22T09:54:19.200Z,60.81
2024-04-22T09:56:48.706Z,62.45
2024-04-22T09:59:22.300Z,60.84
2024-04-22T10:01:53.472Z,60.80
2024-04-22T10:04:24.241Z,60.86
2024-04-22T10:06:52.330Z,62.72
2024-04-22T10:09:24.263Z,59.17
2024-04-22T10:11:53.717Z,58.28
2024-04-22T10:14:25.218Z,59.83
2024-04-22T10:17:01.439Z,60.32
2024-04-22T10:19:32.970Z,60.93
2024-04-22T10:22:02.352Z,64.20
2024-04-22T10:24:34.276Z,57.42
2024-04-22T10:27:09.977Z,59.94
2024-04-22T10:29:45.265Z,55.78
2024-04-22T10:32:16.958Z,58.56
2024-04-22T10:34:48.319Z,55.14
2024-04-22T10:37:16.494Z,57.15
2024-04-22T10:39:47.304Z,57.06
2024-04-22T10:42:17.128Z,55.18
2024-04-22T10:44:48.218Z,55.38
2024-04-22T10:47:20.327Z,57.38
2024-04-22T10:49:51.182Z,51.08
2024-04-22T10:52:19.535Z,52.21
2024-04-22T10:54:53.240Z,50.51
2024-04-22T10:57:21.418Z,52.03
2024-04-22T10:59:52.431Z,52.70
2024-04-22T11:02:25.438Z,53.31
2024-04-22T11:04:55.546Z,52.75
2024-04-22T11:07:25.338Z,52.83
2024-04-22T11:09:56.845Z,57.94
2024-04-22T11:12:28.268Z,53.70
2024-04-22T11:15:01.264Z,53.26
2024-04-22T11:17:32.467Z,54.24
2024-04-22T11:20:13.292Z,50.79
2024-04-22T11:22:41.541Z,51.41
2024-04-22T11:25:13.350Z,51.32
2024-04-22T11:27:41.503Z,49.00
2024-04-22T11:30:13.344Z,54.70
2024-04-22T11:32:44.518Z,51.79
2024-04-22T11:35:16.349Z,46.04
2024-04-22T11:37:44.567Z,45.96
2024-04-22T11:40:14.609Z,48.09
2024-04-22T11:42:43.344Z,50.04
2024-04-22T11:45:13.747Z,48.38
2024-04-22T11:47:45.621Z,50.18
2024-04-22T11:50:15.620Z,46.54
2024-04-22T11:52:44.390Z,46.05
2024-04-22T11:55:14.786Z,45.81
2024-04-22T11:57:43.356Z,46.53
2024-04-22T12:00:14.326Z,42.72
2024-04-22T12:02:45.510Z,48.64
2024-04-22T12:05:17.606Z,48.60
2024-04-22T12:07:45.587Z,48.99
2024-04-22T12:10:13.434Z,43.16
2024-04-22T12:12:44.125Z,42.11
2024-04-22T12:15:14.463Z,36.92
2024-04-22T12:17:48.242Z,42.31
2024-04-22T12:20:16.373Z,49.25
2024-04-22T12:22:47.276Z,49.60
2024-04-22T12:25:14.960Z,54.36
2024-04-22T12:27:45.375Z,56.90
2024-04-22T12:30:12.943Z,59.32
2024-04-22T12:32:43.209Z,54.08
2024-04-22T12:35:14.438Z,54.68
2024-04-22T12:37:45.219Z,52.02
2024-04-22T12:40:13.396Z,56.70
2024-04-22T12:42:44.195Z,50.27
2024-04-22T12:45:12.293Z,52.54
2024-04-22T12:47:59.488Z,55.64
2024-04-22T12:50:49.486Z,51.48
2024-04-22T12:53:21.435Z,49.76
2024-04-22T12:55:52.253Z,49.24
2024-04-22T12:58:21.483Z,49.17
2024-04-22T13:00:52.267Z,52.68
2024-04-22T13:03:24.460Z,47.91
2024-04-22T13:05:57.529Z,44.78
2024-04-22T13:08:28.478Z,51.76
2024-04-22T13:10:58.792Z,52.50
2024-04-22T13:13:29.472Z,50.59
2024-04-22T13:15:59.604Z,48.82
2024-04-22T13:18:27.562Z,47.10
2024-04-22T13:21:00.309Z,52.12
2024-04-22T13:23:29.452Z,52.66
2024-04-22T13:25:59.301Z,54.42
2024-04-22T13:28:28.508Z,47.74
2024-04-22T13:30:58.253Z,48.89
2024-04-22T13:33:27.012Z,44.71
2024-04-22T13:36:01.561Z,45.20
2024-04-22T13:38:30.084Z,43.48
2024-04-22T13:41:00.512Z,44.93
2024-04-22T13:43:29.004Z,43.28
2024-04-22T13:45:59.325Z,44.70
2024-04-22T13:48:28.534Z,40.35
2024-04-22T13:51:01.269Z,39.21
2024-04-22T13:53:32.218Z,44.74
2024-04-22T13:56:02.572Z,40.68
2024-04-22T13:58:31.131Z,44.56
2024-04-22T14:01:02.544Z,40.11
2024-04-22T14:03:31.071Z,39.64
2024-04-22T14:06:06.305Z,43.26
2024-04-22T14:08:39.536Z,37.83
2024-04-22T14:11:08.182Z,41.47
2024-04-22T14:13:39.548Z,42.28
2024-04-22T14:16:07.724Z,44.47
2024-04-22T14:18:38.651Z,47.15
2024-04-22T14:21:08.720Z,47.16
2024-04-22T14:23:39.559Z,47.32
2024-04-22T14:26:07.049Z,47.89
2024-04-22T14:28:41.637Z,53.19
2024-04-22T14:31:10.108Z,47.41
2024-04-22T14:33:40.418Z,46.90
2024-04-22T14:36:11.551Z,46.14
2024-04-22T14:38:42.687Z,44.92
2024-04-22T14:41:10.558Z,41.78
2024-04-22T14:43:40.697Z,40.15
2024-04-22T14:46:09.576Z,42.57
2024-04-22T14:48:40.035Z,41.62
2024-04-22T14:51:11.605Z,39.43
2024-04-22T14:53:41.803Z,47.33
2024-04-22T14:56:10.589Z,43.75
2024-04-22T14:58:40.825Z,43.04
2024-04-22T15:01:09.630Z,40.49
2024-04-22T15:03:39.981Z,42.34
2024-04-22T15:06:11.596Z,41.75
2024-04-22T15:08:41.738Z,47.04
2024-04-22T15:11:11.741Z,39.97
2024-04-22T15:13:41.905Z,40.53
2024-04-22T15:16:10.597Z,37.90
2024-04-22T15:18:40.769Z,36.83
2024-04-22T15:21:14.660Z,33.97
2024-04-22T15:23:47.012Z,39.84
2024-04-22T15:26:15.614Z,40.73
2024-04-22T15:28:50.538Z,39.91
2024-04-22T15:31:19.731Z,43.99
2024-04-22T15:33:49.767Z,46.28
2024-04-22T15:36:21.638Z,42.13
2024-04-22T15:38:51.885Z,47.34
2024-04-22T15:41:19.635Z,43.54
2024-04-22T15:43:50.768Z,41.36
2024-04-22T15:46:19.671Z,43.03
2024-04-22T15:48:49.417Z,43.11
2024-04-22T15:51:21.665Z,44.73
2024-04-22T15:53:51.213Z,46.27
2024-04-22T15:56:19.010Z,41.37
2024-04-22T15:58:49.853Z,41.99
2024-04-22T16:01:17.871Z,39.37
2024-04-22T16:03:48.712Z,41.55
2024-04-22T16:06:16.800Z,47.71
2024-04-22T16:08:49.667Z,48.41
2024-04-22T16:11:17.813Z,51.11
2024-04-22T16:13:47.751Z,48.70
2024-04-22T16:16:16.187Z,49.78
2024-04-22T16:18:46.740Z,52.24
2024-04-22T16:21:17.444Z,49.32
2024-04-22T16:23:50.724Z,52.92
2024-04-22T16:26:19.596Z,50.51
2024-04-22T16:28:49.832Z,52.71
2024-04-22T16:31:19.186Z,50.28
2024-04-22T16:33:49.727Z,48.82
2024-04-22T16:36:17.859Z,52.82
2024-04-22T16:38:50.795Z,54.15
2024-04-22T16:41:18.847Z,51.29
2024-04-22T16:43:49.809Z,48.73
2024-04-22T16:46:17.855Z,51.91
2024-04-22T16:48:48.757Z,52.87
2024-04-22T16:51:16.872Z,54.66
2024-04-22T16:53:51.253Z,53.71
2024-04-22T16:56:22.876Z,54.29
2024-04-22T16:58:53.836Z,56.93
2024-04-22T17:01:21.986Z,53.87
2024-04-22T17:03:51.988Z,57.06
2024-04-22T17:06:20.746Z,57.27
2024-04-22T17:08:50.898Z,54.99
2024-04-22T17:11:19.811Z,58.95
2024-04-22T17:13:52.651Z,58.25
2024-04-22T17:16:22.553Z,55.21
2024-04-22T17:18:55.765Z,56.80
2024-04-22T17:21:23.909Z,57.32
2024-04-22T17:23:54.772Z,54.92
2024-04-22T17:26:24.401Z,57.86
2024-04-22T17:28:58.823Z,58.50
2024-04-22T17:31:27.344Z,59.37
2024-04-22T17:33:58.807Z,59.71
2024-04-22T17:36:26.960Z,64.35
2024-04-22T17:38:56.915Z,57.15
2024-04-22T17:41:25.794Z,60.75
2024-04-22T17:43:59.187Z,55.21
2024-04-22T17:46:27.804Z,56.39
2024-04-22T17:48:57.998Z,59.92
2024-04-22T17:51:27.811Z,60.67
2024-04-22T17:53:58.027Z,62.64
2024-04-22T17:56:26.817Z,60.64
2024-04-22T17:58:59.630Z,61.26
2024-04-22T18:01:28.014Z,61.11
2024-04-22T18:03:58.858Z,60.68
2024-04-22T18:06:26.986Z,61.17
2024-04-22T18:08:57.301Z,62.98
2024-04-22T18:11:28.957Z,62.46
2024-04-22T18:14:02.018Z,61.64
2024-04-22T18:16:30.866Z,62.20
2024-04-22T18:19:01.583Z,59.60
2024-04-22T18:21:30.953Z,61.66
2024-04-22T18:24:03.359Z,63.28
2024-04-22T18:26:34.104Z,64.27
2024-04-22T18:29:07.332Z,62.42
2024-04-22T18:31:35.240Z,63.13
2024-04-22T18:34:05.914Z,61.69
2024-04-22T18:36:34.031Z,63.63
2024-04-22T18:39:07.129Z,63.97
2024-04-22T18:41:38.054Z,66.30
2024-04-22T18:44:11.153Z,62.71
2024-04-22T18:46:40.977Z,67.71
2024-04-22T18:49:10.884Z,64.97
2024-04-22T18:51:40.102Z,64.79
2024-04-22T18:54:09.669Z,63.24
2024-04-22T18:56:38.897Z,66.26
2024-04-22T18:59:11.789Z,66.44
2024-04-22T19:01:40.625Z,67.98
2024-04-22T19:04:10.765Z,68.77
2024-04-22T19:06:38.914Z,69.04
2024-04-22T19:09:10.491Z,69.50
2024-04-22T19:11:38.202Z,70.67
2024-04-22T19:14:08.958Z,69.26
2024-04-22T19:16:40.134Z,69.58
2024-04-22T19:19:10.936Z,65.78
2024-04-22T19:21:39.070Z,69.73
2024-04-22T19:24:10.904Z,68.81
2024-04-22T19:26:39.395Z,67.69
2024-04-22T19:29:09.986Z,70.84
2024-04-22T19:31:41.163Z,70.14
2024-04-22T19:34:11.979Z,71.44
2024-04-22T19:36:40.228Z,70.83
2024-04-22T19:39:12.950Z,72.46
2024-04-22T19:41:45.151Z,72.38
2024-04-22T19:44:15.728Z,70.21
2024-04-22T19:46:47.995Z,70.89
2024-04-22T19:49:17.743Z,71.16
2024-04-22T19:51:46.961Z,72.20
2024-04-22T19:54:16.763Z,70.54
2024-04-22T19:56:45.944Z,71.64
2024-04-22T19:59:15.746Z,71.54
2024-04-22T20:01:48.017Z,72.66
2024-04-22T20:04:17.817Z,72.08
2024-04-22T20:06:46.991Z,73.28
2024-04-22T20:09:16.745Z,74.21
2024-04-22T20:11:45.010Z,74.57
2024-04-22T20:14:15.772Z,74.33
2024-04-22T20:17:00.092Z,76.17
2024-04-22T20:19:34.600Z,76.06
2024-04-22T20:22:04.977Z,77.27
2024-04-22T20:24:35.763Z,74.29
2024-04-22T20:27:06.002Z,77.59
2024-04-22T20:29:35.776Z,77.18
2024-04-22T20:32:08.255Z,77.73
2024-04-22T20:34:38.926Z,76.31
2024-04-22T20:37:07.020Z,77.82
2024-04-22T20:39:37.168Z,79.07
2024-04-22T20:42:05.125Z,79.10
2024-04-22T20:44:36.033Z,79.67
2024-04-22T20:47:07.250Z,79.99
2024-04-22T20:49:38.061Z,79.47
2024-04-22T20:52:06.228Z,80.11
2024-04-22T20:54:36.136Z,81.21
2024-04-22T20:57:05.030Z,81.04
2024-04-22T20:59:35.196Z,82.40
2024-04-22T21:02:03.313Z,83.37
2024-04-22T21:04:36.089Z,83.90
2024-04-22T21:07:05.467Z,82.53
2024-04-22T21:09:36.057Z,82.93
2024-04-22T21:12:04.675Z,82.99
2024-04-22T21:14:35.051Z,83.83
2024-04-22T21:17:03.592Z,84.15
2024-04-22T21:19:35.867Z,82.98
2024-04-22T21:22:05.066Z,84.87
2024-04-22T21:24:34.840Z,83.67
2024-04-22T21:27:04.069Z,84.13
2024-04-22T21:29:33.878Z,84.17
2024-04-22T21:32:04.101Z,84.71
2024-04-22T21:34:37.033Z,85.10
2024-04-22T21:37:06.092Z,85.01
2024-04-22T21:39:35.851Z,85.47
2024-04-22T21:42:05.098Z,85.04
2024-04-22T21:44:34.904Z,85.22
2024-04-22T21:47:04.209Z,85.86
2024-04-22T21:49:36.939Z,85.78
2024-04-22T21:52:08.075Z,86.89
2024-04-22T21:54:38.506Z,87.24
2024-04-22T21:57:45.340Z,86.93
2024-04-22T22:00:53.171Z,87.74
2024-04-22T22:04:00.145Z,88.23
2024-04-22T22:07:07.927Z,88.07
2024-04-22T22:09:40.109Z,88.53
2024-04-22T22:12:09.905Z,88.58
2024-04-22T22:14:39.130Z,88.34
2024-04-22T22:17:10.607Z,88.07
2024-04-22T22:19:39.159Z,88.50
2024-04-22T22:22:09.047Z,88.41
2024-04-22T22:24:43.182Z,88.08
2024-04-22T22:27:14.992Z,88.69
2024-04-22T22:29:44.147Z,89.35
2024-04-22T22:32:14.018Z,89.55
2024-04-22T22:34:42.691Z,88.74
2024-04-22T22:37:13.148Z,88.11
2024-04-22T22:39:45.514Z,87.75
2024-04-22T22:42:17.163Z,87.35
2024-04-22T22:44:45.678Z,88.49
2024-04-22T22:47:16.252Z,88.31
2024-04-22T22:49:44.307Z,88.40
2024-04-22T22:52:15.169Z,87.61
2024-04-22T22:54:46.305Z,88.54
2024-04-22T22:57:17.182Z,88.28
2024-04-22T22:59:45.325Z,88.36
2024-04-22T23:02:16.192Z,88.31
2024-04-22T23:04:44.307Z,88.72
2024-04-22T23:07:15.423Z,88.88
2024-04-22T23:09:46.316Z,88.74
2024-04-22T23:12:17.183Z,88.64
2024-04-22T23:14:45.323Z,89.02
2024-04-22T23:17:16.282Z,89.08
2024-04-22T23:19:44.431Z,88.40
2024-04-22T23:22:15.195Z,88.34
2024-04-22T23:24:46.307Z,88.58
2024-04-22T23:27:20.543Z,90.11
2024-04-22T23:29:48.330Z,89.69
2024-04-22T23:32:19.223Z,88.80
2024-04-22T23:34:47.373Z,89.67
2024-04-22T23:37:19.221Z,89.75
2024-04-22T23:39:50.360Z,90.43
2024-04-22T23:42:21.215Z,90.43
2024-04-22T23:44:48.776Z,90.86
2024-04-22T23:47:19.248Z,90.82
2024-04-22T23:49:48.118Z,90.46
2024-04-22T23:52:18.026Z,91.23
2024-04-22T23:54:50.244Z,89.88
2024-04-22T23:57:20.033Z,90.27
2024-04-22T23:59:49.244Z,90.51
